Gaars Mill, Louisiana
Current Conditions -  °F | °C
As of 4:55 PM on Saturday 25 Oct 2014 (Local Time) from KRSN Reporting Station
Clear Clear  
Wind Chill: 27°   Ceiling: Unl
Heat Index: 28°   Visibility: 10mi
Dew Point: 17°   Wind: 0mph
Humidity: 52%   Direction: NA
Pressure: 30.11"   Gusts: NA
Location:  32.0727°N, 92.6697°W
Report Text: KRSN 252155Z AUTO 00000KT 10SM CLR 27/17 A3011 RMK AO2 T02730167
Loading
Personal Weather Stations






























Interactive Weather Map
Tropical Storm Tracking
New forecast layout! Learn more

10-Day Weather Forecast

Advertisements
Track Severe Weather on mobile